Time;durP1;ratioP1;P1;durP2;ratioP2;P2;SDS_P1;SDS_P2;PMS_P1;PMS_P2;Temp;Humidity;BMP_temperature;BMP_pressure;BME280_temperature;BME280_humidity;BME280_pressure;Samples;Min_cycle;Max_cycle;Signal;HPM_P1;HPM_P2
2023/07/31 12:25:23;;;;;;;;;8.33;5.17;;;;;20.73;66.07;101042.78;2027781;27;2746055;-85
2023/07/31 12:26:34;;;;;;;;;4.00;4.00;;;;;20.90;65.72;101051.38;2025695;27;2750338;-85
2023/07/31 12:27:45;;;;;;;;;7.00;5.00;;;;;21.06;65.15;101042.31;2033452;27;2745141;-86
2023/07/31 12:28:56;;;;;;;;;4.67;4.67;;;;;21.21;64.50;101034.97;2035594;27;2746163;-86
2023/07/31 12:30:26;;;;;;;;;7.00;6.67;;;;;21.42;64.35;101050.38;2037060;27;2740998;-85
2023/07/31 12:31:41;;;;;;;;;4.67;4.67;;;;;21.57;63.85;101043.88;2054574;27;2739829;-86
2023/07/31 12:32:52;;;;;;;;;5.00;5.00;;;;;21.72;63.30;101048.19;2002996;27;2746173;-85
2023/07/31 12:34:03;;;;;;;;;7.00;7.00;;;;;21.85;62.94;101048.09;2057782;27;2734011;-86
2023/07/31 12:35:13;;;;;;;;;5.00;4.00;;;;;21.98;62.89;101059.59;2033026;27;2745119;-85
2023/07/31 12:36:24;;;;;;;;;4.00;2.00;;;;;22.10;63.14;101040.91;2056755;27;2731587;-86
2023/07/31 12:37:35;;;;;;;;;5.33;5.00;;;;;22.23;62.75;101046.13;2030499;27;3462751;-85
2023/07/31 12:38:46;;;;;;;;;4.00;4.00;;;;;22.34;62.47;101040.78;2041080;27;3456495;-86
2023/07/31 12:40:03;;;;;;;;;3.50;3.25;;;;;22.44;61.97;101032.03;2050505;27;2744041;-85
2023/07/31 12:41:13;;;;;;;;;6.33;4.00;;;;;22.55;61.73;101028.47;2025237;27;2748267;-86
2023/07/31 12:42:24;;;;;;;;;4.00;4.00;;;;;22.63;62.65;101020.69;2043083;27;2742050;-86
2023/07/31 12:43:36;;;;;;;;;5.67;4.33;;;;;22.70;62.25;101019.25;2060437;27;1811717;-86
2023/07/31 12:44:49;;;;;;;;;5.83;5.83;;;;;22.77;62.25;101016.06;2037015;27;2736775;-86
2023/07/31 12:46:00;;;;;;;;;7.00;5.67;;;;;22.85;61.73;101015.44;2002005;27;2743150;-84
2023/07/31 12:47:11;;;;;;;;;3.67;3.33;;;;;22.92;61.81;101019.31;2040362;27;2733651;-81
2023/07/31 12:48:22;;;;;;;;;9.00;7.00;;;;;22.97;62.38;101011.75;2037425;27;3463095;-87
2023/07/31 12:49:32;;;;;;;;;5.00;4.00;;;;;23.02;61.51;101016.75;2033161;28;2747143;-88
2023/07/31 12:50:43;;;;;;;;;4.67;4.67;;;;;23.07;61.78;101014.53;2039537;27;3461742;-81
2023/07/31 12:51:54;;;;;;;;;8.33;5.67;;;;;23.12;60.79;101011.47;2039019;27;2739849;-81
2023/07/31 12:53:06;;;;;;;;;6.00;5.00;;;;;23.19;60.78;101014.50;2038482;27;2750338;-86
2023/07/31 12:54:16;;;;;;;;;6.33;3.33;;;;;23.24;60.56;101012.28;2026036;27;2748181;-87
2023/07/31 12:55:27;;;;;;;;;4.67;3.67;;;;;23.27;60.36;101007.53;2043178;27;2749309;-86
2023/07/31 12:56:40;;;;;;;;;6.67;6.00;;;;;23.33;60.79;101005.31;2036188;27;2745198;-86
2023/07/31 12:57:50;;;;;;;;;6.33;5.67;;;;;23.37;60.37;100994.19;2024540;27;3459608;-86
2023/07/31 12:59:01;;;;;;;;;4.67;4.67;;;;;23.42;59.81;100984.91;2032153;27;3460206;-86
2023/07/31 13:00:13;;;;;;;;;4.00;4.00;;;;;23.45;59.59;100980.16;2044756;27;2737889;-86
2023/07/31 13:01:23;;;;;;;;;5.00;4.67;;;;;23.51;58.97;100972.59;2032838;27;3458550;-87
2023/07/31 13:02:34;;;;;;;;;3.67;3.67;;;;;23.55;58.90;100974.88;2047352;27;3459634;-86
2023/07/31 13:03:45;;;;;;;;;5.00;5.00;;;;;23.60;58.75;100966.44;2044018;27;2745570;-86
2023/07/31 13:04:56;;;;;;;;;4.67;4.00;;;;;23.63;58.42;100963.47;2042722;27;3470068;-86
2023/07/31 13:06:07;;;;;;;;;5.00;5.00;;;;;23.66;58.69;100960.53;2043892;27;2743078;-86
2023/07/31 13:07:18;;;;;;;;;5.33;4.67;;;;;23.70;57.99;100969.19;2041169;27;3470050;-86
2023/07/31 13:08:29;;;;;;;;;3.00;3.00;;;;;23.72;57.88;100961.84;2043851;27;3460665;-86
2023/07/31 13:09:40;;;;;;;;;4.33;4.33;;;;;23.75;57.73;100964.28;2043185;27;2749343;-86
2023/07/31 13:10:50;;;;;;;;;4.00;4.00;;;;;23.77;58.00;100954.25;2038409;27;3465933;-86
2023/07/31 13:12:01;;;;;;;;;6.00;6.00;;;;;23.80;57.80;100956.69;2044978;27;2745096;-86
2023/07/31 13:13:12;;;;;;;;;6.00;5.67;;;;;23.84;57.32;100957.25;2039306;27;2746214;-86
2023/07/31 13:14:23;;;;;;;;;6.00;5.33;;;;;23.87;57.65;100953.44;2038417;27;2746119;-86
2023/07/31 13:15:34;;;;;;;;;5.00;4.67;;;;;23.88;57.60;100953.31;2046948;27;2745538;-86
2023/07/31 13:16:45;;;;;;;;;5.00;3.67;;;;;23.90;57.15;100942.47;2044258;27;2750399;-86
2023/07/31 13:17:56;;;;;;;;;6.67;6.67;;;;;23.92;57.25;100944.03;2046318;27;2745045;-86
2023/07/31 13:19:07;;;;;;;;;6.67;5.67;;;;;23.94;57.16;100934.00;2037767;27;2746214;-86
2023/07/31 13:20:17;;;;;;;;;4.33;4.33;;;;;23.97;57.21;100940.06;2039528;27;2745052;-86
2023/07/31 13:21:28;;;;;;;;;5.33;5.33;;;;;23.99;57.03;100936.28;2040740;27;2743369;-86
2023/07/31 13:22:39;;;;;;;;;8.33;4.00;;;;;24.02;56.72;100927.97;2043226;27;2750378;-87
2023/07/31 13:23:50;;;;;;;;;6.33;5.33;;;;;24.02;56.34;100922.59;2042427;27;2740909;-86
2023/07/31 13:25:01;;;;;;;;;4.67;4.33;;;;;24.04;56.59;100934.03;2044808;27;2749276;-86
2023/07/31 13:26:12;;;;;;;;;5.00;5.00;;;;;24.07;56.63;100926.69;2051099;27;2748325;-86
2023/07/31 13:27:24;;;;;;;;;5.00;4.00;;;;;24.09;56.73;100930.94;2046894;27;2752443;-87
2023/07/31 13:28:34;;;;;;;;;4.00;4.00;;;;;24.11;56.33;100930.81;2036666;27;3470028;-87
2023/07/31 13:29:45;;;;;;;;;5.33;5.33;;;;;24.11;56.12;100933.47;2051531;27;2748648;-86
2023/07/31 13:30:56;;;;;;;;;5.00;5.00;;;;;24.12;56.28;100929.81;2043844;27;3464882;-85
2023/07/31 13:32:07;;;;;;;;;4.00;4.00;;;;;24.12;55.89;100938.75;2054983;27;3465864;-86
2023/07/31 13:33:18;;;;;;;;;4.33;4.33;;;;;24.15;56.26;100932.25;2046200;27;2752801;-86
2023/07/31 13:34:29;;;;;;;;;4.67;4.00;;;;;24.16;55.97;100925.88;2044895;27;3470084;-86
2023/07/31 13:35:39;;;;;;;;;5.00;3.00;;;;;24.17;55.58;100927.59;2054161;27;2732619;-86
2023/07/31 13:36:50;;;;;;;;;4.00;4.00;;;;;24.17;56.01;100922.22;2038746;28;2743528;-86
2023/07/31 13:38:01;;;;;;;;;4.67;4.00;;;;;24.18;55.66;100929.28;2033649;28;3470096;-87
2023/07/31 13:39:12;;;;;;;;;5.67;4.33;;;;;24.17;56.02;100925.72;2038280;27;2743108;-86
2023/07/31 13:40:23;;;;;;;;;4.33;4.33;;;;;24.17;55.78;100917.69;2040568;27;2747274;-87
2023/07/31 13:41:34;;;;;;;;;4.00;4.00;;;;;24.17;55.62;100919.53;2040652;28;2742055;-86
2023/07/31 13:42:46;;;;;;;;;2.67;2.00;;;;;24.18;55.77;100921.22;2043494;27;2746113;-87
2023/07/31 13:43:57;;;;;;;;;5.67;3.33;;;;;24.17;55.79;100915.00;2034185;27;2751505;-87
2023/07/31 13:45:08;;;;;;;;;4.33;4.00;;;;;24.18;55.61;100913.16;2047401;27;2754508;-85
2023/07/31 13:46:19;;;;;;;;;5.33;4.67;;;;;24.19;55.56;100908.66;2022454;28;3464867;-86
2023/07/31 13:47:31;;;;;;;;;2.75;2.75;;;;;24.20;55.43;100915.72;2052903;27;2729461;-86
2023/07/31 13:48:42;;;;;;;;;3.00;3.00;;;;;24.20;55.15;100919.25;2032663;27;2738930;-86
2023/07/31 13:49:53;;;;;;;;;4.33;4.33;;;;;24.21;55.31;100918.25;2045701;27;3458590;-86
2023/07/31 13:51:04;;;;;;;;;4.33;4.33;;;;;24.21;55.32;100902.16;2046430;27;3467952;-86
2023/07/31 13:52:14;;;;;;;;;5.00;3.00;;;;;24.23;55.14;100899.31;2037828;27;2748679;-86
2023/07/31 13:53:25;;;;;;;;;5.00;4.00;;;;;24.24;55.20;100903.72;2047731;27;2752429;-84
2023/07/31 13:54:36;;;;;;;;;3.33;3.33;;;;;24.24;55.04;100917.13;2049658;27;2746180;-83
2023/07/31 13:55:49;;;;;;;;;6.33;5.00;;;;;24.24;54.99;100918.00;2049401;27;3463784;-83
2023/07/31 13:57:00;;;;;;;;;4.33;4.33;;;;;24.24;55.26;100909.94;2026460;28;3458634;-85
2023/07/31 13:58:10;;;;;;;;;7.00;4.67;;;;;24.25;55.09;100911.66;2027171;27;2743061;-86
2023/07/31 13:59:21;;;;;;;;;5.00;4.67;;;;;24.26;54.81;100901.78;2043313;27;3461747;-86
2023/07/31 14:00:32;;;;;;;;;5.00;4.00;;;;;24.26;54.81;100901.78;2043896;27;2751425;-86
2023/07/31 14:01:43;;;;;;;;;4.33;4.33;;;;;24.26;54.84;100902.63;2043684;27;2755043;-86
2023/07/31 14:02:54;;;;;;;;;5.33;3.67;;;;;24.27;54.65;100893.56;2037305;27;2739957;-85
2023/07/31 14:04:04;;;;;;;;;4.00;4.00;;;;;24.27;54.77;100896.25;2048152;27;3459643;-85
2023/07/31 14:05:15;;;;;;;;;7.00;4.33;;;;;24.28;54.62;100895.28;2045125;27;2751358;-86
2023/07/31 14:06:26;;;;;;;;;5.33;4.00;;;;;24.30;54.74;100895.13;2045925;27;2742438;-86
2023/07/31 14:07:37;;;;;;;;;4.33;4.33;;;;;24.31;54.75;100885.25;2046750;27;2747264;-85
2023/07/31 14:08:48;;;;;;;;;3.00;3.00;;;;;24.30;54.68;100897.00;2048302;27;2743016;-85
2023/07/31 14:09:59;;;;;;;;;4.00;3.33;;;;;24.30;54.73;100889.75;2049026;27;2737777;-84
2023/07/31 14:11:10;;;;;;;;;4.00;3.67;;;;;24.30;54.84;100872.81;2046063;27;2754563;-85
2023/07/31 14:12:21;;;;;;;;;5.00;5.00;;;;;24.31;54.46;100887.94;2040121;28;3461699;-86
2023/07/31 14:13:31;;;;;;;;;4.00;4.00;;;;;24.31;54.78;100882.56;2029745;27;2750347;-86
2023/07/31 14:14:42;;;;;;;;;6.00;4.00;;;;;24.31;54.44;100871.81;2048828;27;3467987;-86
2023/07/31 14:15:53;;;;;;;;;5.00;3.00;;;;;24.32;54.54;100879.75;2049338;27;2744110;-86
2023/07/31 14:17:05;;;;;;;;;5.67;4.33;;;;;24.32;54.42;100873.53;2048415;27;2747215;-85
2023/07/31 14:18:15;;;;;;;;;6.00;4.33;;;;;24.33;54.39;100875.22;2026137;27;3467960;-85
2023/07/31 14:19:26;;;;;;;;;4.00;4.00;;;;;24.32;54.14;100860.94;2041842;27;3463810;-85
2023/07/31 14:20:37;;;;;;;;;5.67;4.00;;;;;24.33;54.22;100867.16;2040690;28;2750444;-85
2023/07/31 14:21:48;;;;;;;;;6.00;4.00;;;;;24.33;54.62;100875.22;2029357;27;2746094;-85
2023/07/31 14:22:59;;;;;;;;;6.00;4.67;;;;;24.33;54.65;100878.75;2042167;27;2746230;-85
2023/07/31 14:24:10;;;;;;;;;5.67;5.00;;;;;24.33;55.03;100883.25;2048630;27;2748571;-84
2023/07/31 14:25:20;;;;;;;;;7.00;4.00;;;;;24.33;54.36;100877.88;2036383;27;3468503;-85
2023/07/31 14:26:31;;;;;;;;;3.00;3.00;;;;;24.33;54.48;100877.88;2029552;28;2732571;-85
2023/07/31 14:27:42;;;;;;;;;3.33;3.33;;;;;24.33;54.40;100872.53;2032713;28;2746253;-85
2023/07/31 14:28:53;;;;;;;;;3.00;3.00;;;;;24.32;54.42;100877.06;2040113;28;2754541;-85
2023/07/31 14:30:04;;;;;;;;;3.33;2.00;;;;;24.33;54.70;100883.25;2040231;28;2735733;-85
2023/07/31 14:31:15;;;;;;;;;3.00;3.00;;;;;24.33;54.91;100873.38;2028166;27;2740866;-85
2023/07/31 14:32:26;;;;;;;;;5.00;4.00;;;;;24.32;55.36;100871.69;2052866;27;2741996;-85
2023/07/31 14:33:37;;;;;;;;;4.67;3.33;;;;;24.34;55.90;100874.22;2040834;27;3457588;-85
2023/07/31 14:34:47;;;;;;;;;4.00;4.00;;;;;24.32;55.39;100866.31;2030396;27;2736041;-85
2023/07/31 14:35:58;;;;;;;;;6.00;4.33;;;;;24.32;56.26;100873.53;2041181;27;3465882;-86
2023/07/31 14:37:09;;;;;;;;;5.33;4.00;;;;;24.31;56.35;100867.31;2034282;27;2749341;-85
2023/07/31 14:38:20;;;;;;;;;3.33;3.33;;;;;24.31;56.69;100864.63;2046199;27;2742045;-85
2023/07/31 14:39:31;;;;;;;;;6.00;3.67;;;;;24.32;57.75;100862.78;2046002;27;2744137;-86
2023/07/31 14:40:42;;;;;;;;;4.00;4.00;;;;;24.31;57.48;100863.75;2040772;27;2752486;-86
2023/07/31 14:41:53;;;;;;;;;2.33;2.33;;;;;24.30;57.16;100868.28;2042420;27;3460688;-86
2023/07/31 14:43:04;;;;;;;;;3.33;3.33;;;;;24.30;57.59;100857.53;2046880;27;2751761;-86
2023/07/31 14:44:15;;;;;;;;;5.33;4.00;;;;;24.30;57.74;100852.16;2031546;27;3465862;-86
2023/07/31 14:45:27;;;;;;;;;2.00;2.00;;;;;24.29;57.48;100855.84;2051658;28;2746099;-86
2023/07/31 14:46:38;;;;;;;;;6.67;3.67;;;;;24.29;57.82;100847.78;2025863;28;3466356;-86
2023/07/31 14:47:49;;;;;;;;;3.67;3.67;;;;;24.29;58.15;100853.16;2042438;27;2752439;-86
2023/07/31 14:48:59;;;;;;;;;5.33;5.33;;;;;24.28;57.93;100836.19;2040151;27;2742961;-86
2023/07/31 14:50:10;;;;;;;;;5.00;3.67;;;;;24.30;58.36;100832.53;2040419;27;2752921;-86
2023/07/31 14:51:21;;;;;;;;;5.00;4.00;;;;;24.28;58.66;100828.13;2038942;27;3465889;-86
2023/07/31 14:52:32;;;;;;;;;2.00;2.00;;;;;24.26;58.63;100819.38;2040804;28;2728394;-86
2023/07/31 14:53:43;;;;;;;;;7.00;5.00;;;;;24.27;58.60;100825.59;2038615;27;2748305;-86
2023/07/31 14:54:54;;;;;;;;;5.00;4.00;;;;;24.27;58.96;100822.91;2039477;27;3470028;-86
2023/07/31 14:56:05;;;;;;;;;5.33;4.33;;;;;24.25;58.95;100812.31;2037307;27;2743040;-86
2023/07/31 14:57:16;;;;;;;;;3.00;2.00;;;;;24.25;58.67;100817.66;2041138;27;2750357;-86
2023/07/31 14:58:26;;;;;;;;;4.67;3.00;;;;;24.25;58.90;100811.41;2041973;27;2742989;-86
2023/07/31 14:59:37;;;;;;;;;6.33;5.00;;;;;24.25;59.55;100815.00;2042071;27;2743051;-86
2023/07/31 15:00:48;;;;;;;;;5.67;4.00;;;;;24.24;59.85;100812.41;2040044;27;3470385;-86
2023/07/31 15:01:59;;;;;;;;;4.67;4.00;;;;;24.22;59.76;100809.03;2042075;27;2739837;-86
2023/07/31 15:03:10;;;;;;;;;6.33;5.67;;;;;24.21;60.17;100810.00;2042223;27;2746168;-86
2023/07/31 15:04:21;;;;;;;;;6.67;5.00;;;;;24.20;60.18;100809.16;2039690;27;2746480;-86
2023/07/31 15:05:32;;;;;;;;;4.00;3.67;;;;;24.19;59.59;100809.31;2028254;27;2742058;-86
2023/07/31 15:06:43;;;;;;;;;7.00;5.67;;;;;24.18;59.13;100811.13;2060746;27;2738826;-86
2023/07/31 15:07:53;;;;;;;;;6.33;5.00;;;;;24.18;59.66;100813.81;2034716;27;2745703;-86
2023/07/31 15:09:04;;;;;;;;;5.33;4.00;;;;;24.16;60.35;100805.91;2048186;27;2745086;-87
2023/07/31 15:10:15;;;;;;;;;4.67;3.33;;;;;24.16;59.25;100807.75;2037833;28;2737792;-86
2023/07/31 15:11:26;;;;;;;;;5.33;5.33;;;;;24.15;59.33;100808.75;2037016;28;2737830;-87
2023/07/31 15:12:37;;;;;;;;;6.33;3.67;;;;;24.14;59.05;100804.34;2040449;28;3467953;-87
2023/07/31 15:13:48;;;;;;;;;3.33;2.33;;;;;24.13;59.35;100806.19;2026722;28;3457552;-87
2023/07/31 15:14:59;;;;;;;;;5.00;5.00;;;;;24.14;60.36;100796.28;2045179;27;3453361;-87
2023/07/31 15:16:09;;;;;;;;;5.00;5.00;;;;;24.14;59.94;100796.28;2038590;27;2746095;-86
2023/07/31 15:17:20;;;;;;;;;4.00;4.00;;;;;24.15;58.94;100800.69;2040777;28;2741089;-86
2023/07/31 15:18:31;;;;;;;;;4.00;4.00;;;;;24.14;59.38;100798.97;2040761;28;3469008;-87
2023/07/31 15:19:42;;;;;;;;;4.33;4.33;;;;;24.13;59.28;100797.28;2041036;28;3466254;-87
2023/07/31 15:20:54;;;;;;;;;5.67;5.33;;;;;24.14;60.06;100794.47;2050963;28;2735704;-87
2023/07/31 15:22:04;;;;;;;;;6.67;4.67;;;;;24.13;59.61;100797.28;2004792;27;2746166;-86
2023/07/31 15:23:15;;;;;;;;;4.67;4.67;;;;;24.14;60.00;100793.63;2036397;28;2748263;-87
2023/07/31 15:24:26;;;;;;;;;5.00;5.00;;;;;24.14;59.82;100793.63;2029540;28;2740906;-86
2023/07/31 15:25:37;;;;;;;;;5.67;4.00;;;;;24.13;60.29;100808.00;2026012;28;2752456;-86
2023/07/31 15:26:48;;;;;;;;;6.00;4.33;;;;;24.13;60.54;100805.31;2044725;27;3465853;-86
2023/07/31 15:27:59;;;;;;;;;5.67;1.67;;;;;24.11;60.53;100810.84;2046059;27;2746081;-87
2023/07/31 15:29:11;;;;;;;;;4.00;4.00;;;;;24.10;60.03;100809.13;2047670;27;3464129;-86
2023/07/31 15:30:22;;;;;;;;;6.33;3.33;;;;;24.10;59.59;100802.94;2026024;28;3467972;-86
2023/07/31 15:31:32;;;;;;;;;4.00;3.00;;;;;24.10;60.59;100802.94;2034784;27;2740046;-86
2023/07/31 15:32:48;;;;;;;;;5.00;4.00;;;;;24.08;60.25;100795.00;2046568;27;2748808;-87
2023/07/31 15:33:58;;;;;;;;;5.00;3.00;;;;;24.09;60.07;100811.97;2032923;27;2737836;-87
2023/07/31 15:35:09;;;;;;;;;3.00;3.00;;;;;24.09;60.42;100809.28;2055188;27;2744490;-86
2023/07/31 15:36:19;;;;;;;;;5.00;4.00;;;;;24.07;60.26;100820.16;2004952;27;2742031;-86
2023/07/31 15:37:30;;;;;;;;;5.67;5.33;;;;;24.06;60.74;100815.78;2043984;27;2736059;-86
2023/07/31 15:38:41;;;;;;;;;6.00;4.67;;;;;24.07;61.15;100811.25;2040324;27;2746289;-86
2023/07/31 15:39:52;;;;;;;;;5.00;4.67;;;;;24.04;60.46;100815.94;2046986;27;2739887;-86
2023/07/31 15:41:03;;;;;;;;;4.33;3.00;;;;;24.05;60.73;100812.25;2047600;27;2738909;-86
2023/07/31 15:42:14;;;;;;;;;4.00;4.00;;;;;24.04;60.11;100813.25;2038986;27;2748300;-86
2023/07/31 15:43:25;;;;;;;;;5.67;3.67;;;;;24.04;60.52;100809.69;2047874;27;2745118;-86
2023/07/31 15:44:36;;;;;;;;;4.00;3.67;;;;;24.03;60.73;100806.16;2033746;27;2748296;-85
2023/07/31 15:45:47;;;;;;;;;3.33;3.33;;;;;24.03;60.51;100808.00;2034069;27;2740969;-85
2023/07/31 15:46:58;;;;;;;;;1.00;1.00;;;;;24.04;59.99;100804.34;2063914;27;2737756;-87
2023/07/31 15:48:09;;;;;;;;;5.50;5.00;;;;;24.04;59.77;100805.19;2043368;27;1811827;-88
2023/07/31 15:49:19;;;;;;;;;3.67;3.00;;;;;24.04;58.95;100804.34;2027851;27;2743066;-85
2023/07/31 15:50:30;;;;;;;;;7.33;4.33;;;;;24.03;59.94;100805.31;2043942;28;3465876;-85
2023/07/31 15:51:41;;;;;;;;;3.67;3.67;;;;;24.01;59.63;100808.13;2040372;28;3455865;-84
2023/07/31 15:52:52;;;;;;;;;5.67;5.00;;;;;24.01;60.04;100821.56;2038889;28;2740992;-85
2023/07/31 15:54:03;;;;;;;;;5.33;3.33;;;;;24.00;59.88;100816.34;2038921;27;3459608;-85
2023/07/31 15:55:14;;;;;;;;;6.67;5.00;;;;;23.99;60.06;100807.44;2062717;27;1818993;-85
2023/07/31 15:56:25;;;;;;;;;3.67;3.67;;;;;23.98;59.73;100811.09;2018237;27;2744063;-85
2023/07/31 15:57:36;;;;;;;;;8.00;5.33;;;;;23.98;59.75;100811.09;2040307;27;2746170;-85
2023/07/31 15:58:46;;;;;;;;;5.33;4.00;;;;;23.97;59.55;100806.72;2045592;27;3462732;-85
2023/07/31 15:59:57;;;;;;;;;7.00;5.67;;;;;23.99;59.59;100806.56;2047769;27;2746239;-87
2023/07/31 16:01:08;;;;;;;;;7.00;5.33;;;;;23.99;59.31;100806.56;2042335;27;2743077;-88
2023/07/31 16:02:19;;;;;;;;;6.33;5.00;;;;;23.99;59.81;100818.16;2034910;27;2745136;-87
2023/07/31 16:03:31;;;;;;;;;7.25;5.50;;;;;23.98;60.11;100821.81;2051390;27;2745068;-88
2023/07/31 16:04:41;;;;;;;;;5.33;4.00;;;;;23.98;59.74;100808.41;2047829;27;1810656;-87
2023/07/31 16:05:52;;;;;;;;;5.33;4.00;;;;;23.97;59.41;100809.41;2026045;27;2752439;-88
2023/07/31 16:07:03;;;;;;;;;4.33;4.33;;;;;23.96;60.12;100810.38;2044277;27;3461046;-87
2023/07/31 16:08:14;;;;;;;;;5.00;4.00;;;;;23.96;60.14;100796.13;2035064;27;2745262;-88
2023/07/31 16:09:25;;;;;;;;;5.00;4.67;;;;;23.96;59.46;100809.53;2035698;28;3467975;-87
2023/07/31 16:10:36;;;;;;;;;7.00;4.00;;;;;23.95;60.54;100806.03;2040490;27;2744010;-88
2023/07/31 16:11:47;;;;;;;;;3.00;3.00;;;;;23.93;60.14;100808.81;2040789;27;2742042;-87
2023/07/31 16:12:58;;;;;;;;;3.00;3.00;;;;;23.94;60.16;100796.25;2046340;27;2744110;-87
2023/07/31 16:14:09;;;;;;;;;5.00;4.00;;;;;23.92;60.42;100790.19;2042092;27;2754555;-88
2023/07/31 16:15:19;;;;;;;;;7.67;4.67;;;;;23.90;59.84;100784.94;2038038;27;2745546;-87
2023/07/31 16:16:30;;;;;;;;;5.00;4.67;;;;;23.90;60.05;100786.78;2046450;27;2739842;-87
2023/07/31 16:17:41;;;;;;;;;6.67;5.00;;;;;23.90;59.75;100778.75;2044133;27;2743320;-88
2023/07/31 16:18:52;;;;;;;;;4.00;4.00;;;;;23.89;59.83;100772.53;2039793;28;3466389;-88
2023/07/31 16:20:03;;;;;;;;;6.33;4.00;;;;;23.89;60.20;100774.34;2038543;28;2745145;-88
2023/07/31 16:21:14;;;;;;;;;5.33;4.33;;;;;23.88;59.97;100772.66;2025286;28;2748290;-87
2023/07/31 16:22:25;;;;;;;;;4.00;3.33;;;;;23.87;60.44;100768.28;2047334;27;2752431;-88
2023/07/31 16:23:35;;;;;;;;;5.00;5.00;;;;;23.84;60.57;100769.41;2040831;27;2746183;-87
2023/07/31 16:24:46;;;;;;;;;5.00;5.00;;;;;23.84;61.14;100764.03;2040964;27;2748188;-87
2023/07/31 16:25:57;;;;;;;;;5.00;4.00;;;;;23.81;60.45;100765.16;2041090;27;3461792;-87
2023/07/31 16:27:08;;;;;;;;;7.67;4.00;;;;;23.81;60.26;100762.47;2040876;27;3461684;-87
2023/07/31 16:28:19;;;;;;;;;7.67;6.00;;;;;23.80;60.35;100758.09;2040848;27;2738816;-88
2023/07/31 16:29:30;;;;;;;;;5.33;4.33;;;;;23.80;61.22;100759.94;2034800;27;2748364;-87
2023/07/31 16:30:41;;;;;;;;;5.67;5.00;;;;;23.78;60.25;100757.38;2034120;28;2743055;-87
2023/07/31 16:31:52;;;;;;;;;5.67;4.00;;;;;23.76;59.79;100745.94;2039863;27;2749299;-87
2023/07/31 16:33:02;;;;;;;;;4.00;4.00;;;;;23.76;60.60;100743.25;2039861;27;2747232;-87
2023/07/31 16:34:13;;;;;;;;;3.00;3.00;;;;;23.76;59.74;100737.03;2039738;28;2753465;-88
2023/07/31 16:35:24;;;;;;;;;7.67;5.00;;;;;23.75;59.67;100738.88;2039255;28;2741009;-88
2023/07/31 16:36:35;;;;;;;;;4.33;3.67;;;;;23.75;59.70;100738.88;2041194;27;2752936;-87
2023/07/31 16:37:46;;;;;;;;;7.00;5.33;;;;;23.76;60.23;100737.03;2047869;27;3453388;-87
2023/07/31 16:38:57;;;;;;;;;6.00;4.00;;;;;23.77;59.72;100734.22;2030079;28;2737829;-87
2023/07/31 16:40:08;;;;;;;;;6.67;4.33;;;;;23.77;60.76;100739.59;2038220;27;3453361;-88
2023/07/31 16:41:21;;;;;;;;;6.67;5.00;;;;;23.78;60.36;100730.53;2027925;28;2746174;-88
2023/07/31 16:42:31;;;;;;;;;3.33;3.33;;;;;23.78;61.27;100719.81;2025262;27;2748237;-87
2023/07/31 16:43:42;;;;;;;;;6.67;4.00;;;;;23.78;60.82;100718.97;2050057;27;3467941;-87
2023/07/31 16:44:53;;;;;;;;;6.00;2.67;;;;;23.78;60.93;100729.72;2032539;28;2727419;-88
2023/07/31 16:46:04;;;;;;;;;5.00;4.00;;;;;23.76;61.02;100721.78;2039716;27;3465885;-87
2023/07/31 16:47:15;;;;;;;;;7.00;5.00;;;;;23.75;61.21;100730.84;2039911;27;2748271;-87
2023/07/31 16:48:26;;;;;;;;;5.33;5.00;;;;;23.76;60.90;100729.84;2033592;27;2746180;-88
2023/07/31 16:49:37;;;;;;;;;7.67;5.33;;;;;23.75;61.54;100728.16;2026917;27;2739995;-87
2023/07/31 16:50:48;;;;;;;;;7.67;6.00;;;;;23.75;61.61;100727.31;2051033;27;2746188;-87
2023/07/31 16:51:59;;;;;;;;;6.00;5.00;;;;;23.73;61.88;100726.59;2043639;27;2746204;-88
2023/07/31 16:53:09;;;;;;;;;8.33;5.33;;;;;23.72;60.90;100736.47;2038604;28;2746225;-88
2023/07/31 16:54:20;;;;;;;;;8.00;4.33;;;;;23.71;61.65;100732.94;2040493;28;2755049;-88
2023/07/31 16:55:33;;;;;;;;;4.00;4.00;;;;;23.71;60.98;100732.06;2037957;28;2744059;-88
2023/07/31 16:56:48;;;;;;;;;1.17;0.67;;;;;23.72;61.02;100731.09;2052945;27;2739887;-87
2023/07/31 16:57:58;;;;;;;;;5.33;5.00;;;;;23.72;61.71;100728.41;2003413;28;2743532;-88
2023/07/31 16:59:09;;;;;;;;;5.00;5.00;;;;;23.71;61.62;100729.41;2043700;28;2738830;-88
2023/07/31 17:00:20;;;;;;;;;5.00;5.00;;;;;23.70;61.11;100735.78;2040259;27;2750351;-87
2023/07/31 17:01:32;;;;;;;;;4.33;3.33;;;;;23.68;61.48;100732.38;2047749;27;3465908;-88
2023/07/31 17:02:43;;;;;;;;;5.00;4.67;;;;;23.65;60.99;100738.88;2033723;27;3462851;-87
2023/07/31 17:03:54;;;;;;;;;7.00;6.67;;;;;23.63;61.55;100737.31;2043611;27;2740071;-88
2023/07/31 17:05:06;;;;;;;;;5.67;4.00;;;;;23.59;61.83;100732.19;2042596;27;2754548;-86
2023/07/31 17:06:17;;;;;;;;;7.00;6.00;;;;;23.56;61.13;100732.47;2033211;27;2746191;-84
2023/07/31 17:07:28;;;;;;;;;4.67;4.67;;;;;23.52;61.59;100736.41;2040583;28;2742966;-85
2023/07/31 17:08:39;;;;;;;;;5.00;4.00;;;;;23.47;60.88;100720.72;2039984;28;3467953;-85
2023/07/31 17:09:49;;;;;;;;;5.33;5.33;;;;;23.44;61.13;100728.16;2040388;27;3451291;-83
2023/07/31 17:11:00;;;;;;;;;6.00;6.00;;;;;23.36;61.95;100727.00;2048749;27;2746183;-84
2023/07/31 17:12:11;;;;;;;;;6.00;4.00;;;;;23.30;61.88;100732.06;2038611;27;3464826;-84
2023/07/31 17:13:22;;;;;;;;;6.33;5.00;;;;;23.24;62.52;100736.13;2046281;27;3463775;-84
2023/07/31 17:14:33;;;;;;;;;3.67;3.67;;;;;23.16;61.94;100724.25;2048771;27;3461735;-84
2023/07/31 17:15:44;;;;;;;;;6.00;4.33;;;;;23.12;62.67;100719.28;2043368;27;2752465;-85
2023/07/31 17:16:55;;;;;;;;;9.00;4.00;;;;;23.08;62.32;100717.88;2043375;27;3464843;-84
2023/07/31 17:18:06;;;;;;;;;3.67;3.00;;;;;23.07;63.17;100714.34;2046372;27;2750753;-83
2023/07/31 17:19:16;;;;;;;;;5.00;5.00;;;;;23.07;62.99;100708.13;2030753;28;3462749;-84
2023/07/31 17:20:27;;;;;;;;;6.67;5.67;;;;;23.08;62.38;100699.97;2034261;28;2742988;-83
2023/07/31 17:21:39;;;;;;;;;3.00;3.00;;;;;23.07;62.82;100703.63;2040409;28;3456519;-84
2023/07/31 17:22:49;;;;;;;;;7.33;5.33;;;;;23.08;62.55;100699.97;2027978;27;2746257;-83
2023/07/31 17:24:01;;;;;;;;;4.00;4.00;;;;;23.09;62.73;100692.78;2044962;27;2746549;-84
2023/07/31 17:25:11;;;;;;;;;7.00;5.00;;;;;23.10;62.41;100684.59;2026866;28;3459635;-83
2023/07/31 17:26:23;;;;;;;;;9.00;6.00;;;;;23.12;62.34;100677.25;2043953;28;2756622;-83
2023/07/31 17:27:33;;;;;;;;;5.33;4.00;;;;;23.16;61.99;100683.22;2032425;28;2744112;-83
2023/07/31 17:28:44;;;;;;;;;5.00;5.00;;;;;23.19;62.10;100677.56;2040863;28;2746217;-84
2023/07/31 17:29:55;;;;;;;;;4.00;4.00;;;;;23.21;62.38;100672.09;2040120;27;2738850;-84
2023/07/31 17:31:07;;;;;;;;;3.67;3.33;;;;;23.23;61.95;100683.50;2030996;28;2746203;-84
2023/07/31 17:32:18;;;;;;;;;3.00;3.00;;;;;23.26;62.31;100688.59;2028250;27;2741932;-83
2023/07/31 17:33:28;;;;;;;;;3.67;3.67;;;;;23.27;61.92;100682.25;2035408;27;2739848;-84
2023/07/31 17:34:39;;;;;;;;;5.00;5.00;;;;;23.28;62.06;100689.31;2045439;27;2746158;-84
2023/07/31 17:35:50;;;;;;;;;5.67;4.00;;;;;23.30;62.27;100678.44;2047446;27;2748259;-84
2023/07/31 17:37:01;;;;;;;;;5.67;4.00;;;;;23.31;62.30;100674.78;2041925;27;3470027;-84
2023/07/31 17:38:12;;;;;;;;;4.67;4.00;;;;;23.32;62.33;100666.59;2047934;27;2747238;-84
2023/07/31 17:39:23;;;;;;;;;5.00;3.33;;;;;23.33;62.14;100659.41;2042570;27;3470097;-84
2023/07/31 17:40:33;;;;;;;;;5.33;5.33;;;;;23.34;62.30;100670.00;2044947;27;2743473;-84
2023/07/31 17:41:44;;;;;;;;;3.00;3.00;;;;;23.35;61.98;100657.44;2048189;27;2744140;-84
2023/07/31 17:42:55;;;;;;;;;6.67;5.33;;;;;23.36;62.00;100649.25;2045524;27;2739882;-84
2023/07/31 17:44:06;;;;;;;;;5.00;5.00;;;;;23.37;61.56;100648.28;2039754;27;2748181;-84
2023/07/31 17:45:17;;;;;;;;;5.00;4.67;;;;;23.38;61.96;100641.91;2043667;27;2750332;-83
2023/07/31 17:46:28;;;;;;;;;5.33;5.33;;;;;23.38;62.29;100633.88;2036804;27;2746228;-83
2023/07/31 17:47:39;;;;;;;;;7.33;6.00;;;;;23.40;62.04;100624.84;2039118;28;2745117;-84